sensor_id;sensor_type;location;lat;lon;timestamp;P1;durP1;ratioP1;P2;durP2;ratioP2
10945;SDS011;5525;42.648;23.368;2023-06-14T00:02:26;11.45;;;9.65;;
10945;SDS011;5525;42.648;23.368;2023-06-14T00:04:52;10.77;;;9.02;;
10945;SDS011;5525;42.648;23.368;2023-06-14T00:07:21;11.02;;;8.18;;
10945;SDS011;5525;42.648;23.368;2023-06-14T00:10:00;11.40;;;8.23;;
10945;SDS011;5525;42.648;23.368;2023-06-14T00:12:27;10.77;;;8.13;;
10945;SDS011;5525;42.648;23.368;2023-06-14T00:14:53;9.55;;;7.80;;
10945;SDS011;5525;42.648;23.368;2023-06-14T00:17:22;11.13;;;7.90;;
10945;SDS011;5525;42.648;23.368;2023-06-14T00:19:48;9.45;;;7.40;;
10945;SDS011;5525;42.648;23.368;2023-06-14T00:22:15;10.02;;;7.20;;
10945;SDS011;5525;42.648;23.368;2023-06-14T00:24:42;8.23;;;7.20;;
10945;SDS011;5525;42.648;23.368;2023-06-14T00:27:08;7.68;;;6.85;;
10945;SDS011;5525;42.648;23.368;2023-06-14T00:29:35;9.43;;;6.45;;
10945;SDS011;5525;42.648;23.368;2023-06-14T00:32:02;7.82;;;6.25;;
10945;SDS011;5525;42.648;23.368;2023-06-14T00:34:30;7.20;;;6.25;;
10945;SDS011;5525;42.648;23.368;2023-06-14T00:36:57;10.98;;;6.60;;
10945;SDS011;5525;42.648;23.368;2023-06-14T00:39:23;10.90;;;6.55;;
10945;SDS011;5525;42.648;23.368;2023-06-14T00:41:50;8.02;;;6.93;;
10945;SDS011;5525;42.648;23.368;2023-06-14T00:44:17;8.90;;;6.80;;
10945;SDS011;5525;42.648;23.368;2023-06-14T00:46:44;7.60;;;6.80;;
10945;SDS011;5525;42.648;23.368;2023-06-14T00:49:11;8.95;;;6.28;;
10945;SDS011;5525;42.648;23.368;2023-06-14T00:51:42;7.95;;;6.50;;
10945;SDS011;5525;42.648;23.368;2023-06-14T00:54:09;11.50;;;6.45;;
10945;SDS011;5525;42.648;23.368;2023-06-14T00:56:36;9.40;;;6.38;;
10945;SDS011;5525;42.648;23.368;2023-06-14T00:59:03;8.77;;;6.32;;
10945;SDS011;5525;42.648;23.368;2023-06-14T01:01:30;6.88;;;6.00;;
10945;SDS011;5525;42.648;23.368;2023-06-14T01:03:57;7.38;;;6.13;;
10945;SDS011;5525;42.648;23.368;2023-06-14T01:06:27;7.15;;;5.97;;
10945;SDS011;5525;42.648;23.368;2023-06-14T01:09:03;6.40;;;5.80;;
10945;SDS011;5525;42.648;23.368;2023-06-14T01:11:41;6.63;;;5.88;;
10945;SDS011;5525;42.648;23.368;2023-06-14T01:14:16;7.45;;;6.65;;
10945;SDS011;5525;42.648;23.368;2023-06-14T01:16:44;7.05;;;6.35;;
10945;SDS011;5525;42.648;23.368;2023-06-14T01:19:11;7.90;;;6.13;;
10945;SDS011;5525;42.648;23.368;2023-06-14T01:21:39;7.43;;;6.45;;
10945;SDS011;5525;42.648;23.368;2023-06-14T01:24:08;7.75;;;6.32;;
10945;SDS011;5525;42.648;23.368;2023-06-14T01:26:36;8.35;;;6.15;;
10945;SDS011;5525;42.648;23.368;2023-06-14T01:29:06;8.25;;;6.13;;
10945;SDS011;5525;42.648;23.368;2023-06-14T01:31:33;6.63;;;5.72;;
10945;SDS011;5525;42.648;23.368;2023-06-14T01:34:06;7.38;;;6.40;;
10945;SDS011;5525;42.648;23.368;2023-06-14T01:36:33;6.75;;;6.03;;
10945;SDS011;5525;42.648;23.368;2023-06-14T01:39:02;8.45;;;6.80;;
10945;SDS011;5525;42.648;23.368;2023-06-14T01:41:31;8.07;;;6.57;;
10945;SDS011;5525;42.648;23.368;2023-06-14T01:44:00;7.30;;;6.45;;
10945;SDS011;5525;42.648;23.368;2023-06-14T01:46:28;11.68;;;8.85;;
10945;SDS011;5525;42.648;23.368;2023-06-14T01:48:54;12.35;;;8.60;;
10945;SDS011;5525;42.648;23.368;2023-06-14T01:51:21;10.63;;;8.63;;
10945;SDS011;5525;42.648;23.368;2023-06-14T01:53:48;12.65;;;8.90;;
10945;SDS011;5525;42.648;23.368;2023-06-14T01:56:15;14.40;;;9.27;;
10945;SDS011;5525;42.648;23.368;2023-06-14T01:58:43;8.43;;;7.53;;
10945;SDS011;5525;42.648;23.368;2023-06-14T02:01:09;9.60;;;6.63;;
10945;SDS011;5525;42.648;23.368;2023-06-14T02:03:36;9.98;;;6.60;;
10945;SDS011;5525;42.648;23.368;2023-06-14T02:06:04;7.55;;;6.85;;
10945;SDS011;5525;42.648;23.368;2023-06-14T02:08:30;12.13;;;7.75;;
10945;SDS011;5525;42.648;23.368;2023-06-14T02:10:57;10.05;;;6.93;;
10945;SDS011;5525;42.648;23.368;2023-06-14T02:13:23;7.30;;;6.47;;
10945;SDS011;5525;42.648;23.368;2023-06-14T02:15:51;7.78;;;6.60;;
10945;SDS011;5525;42.648;23.368;2023-06-14T02:18:19;9.82;;;6.55;;
10945;SDS011;5525;42.648;23.368;2023-06-14T02:20:46;9.27;;;6.97;;
10945;SDS011;5525;42.648;23.368;2023-06-14T02:23:13;7.00;;;6.25;;
10945;SDS011;5525;42.648;23.368;2023-06-14T02:25:40;8.02;;;6.93;;
10945;SDS011;5525;42.648;23.368;2023-06-14T02:28:08;7.28;;;6.50;;
10945;SDS011;5525;42.648;23.368;2023-06-14T02:30:34;9.30;;;7.00;;
10945;SDS011;5525;42.648;23.368;2023-06-14T02:33:02;20.70;;;6.93;;
10945;SDS011;5525;42.648;23.368;2023-06-14T02:35:29;10.05;;;6.95;;
10945;SDS011;5525;42.648;23.368;2023-06-14T02:37:56;7.30;;;6.07;;
10945;SDS011;5525;42.648;23.368;2023-06-14T02:40:23;9.63;;;6.63;;
10945;SDS011;5525;42.648;23.368;2023-06-14T02:42:50;7.65;;;6.85;;
10945;SDS011;5525;42.648;23.368;2023-06-14T02:45:17;8.25;;;6.60;;
10945;SDS011;5525;42.648;23.368;2023-06-14T02:47:43;9.90;;;6.65;;
10945;SDS011;5525;42.648;23.368;2023-06-14T02:50:12;7.38;;;6.60;;
10945;SDS011;5525;42.648;23.368;2023-06-14T02:52:39;6.93;;;6.22;;
10945;SDS011;5525;42.648;23.368;2023-06-14T02:55:07;7.80;;;6.32;;
10945;SDS011;5525;42.648;23.368;2023-06-14T02:57:34;9.30;;;6.63;;
10945;SDS011;5525;42.648;23.368;2023-06-14T03:00:02;9.13;;;6.20;;
10945;SDS011;5525;42.648;23.368;2023-06-14T03:02:29;9.63;;;6.18;;
10945;SDS011;5525;42.648;23.368;2023-06-14T03:04:55;7.80;;;6.43;;
10945;SDS011;5525;42.648;23.368;2023-06-14T03:07:27;8.23;;;6.72;;
10945;SDS011;5525;42.648;23.368;2023-06-14T03:09:54;10.02;;;6.82;;
10945;SDS011;5525;42.648;23.368;2023-06-14T03:12:21;8.10;;;6.80;;
10945;SDS011;5525;42.648;23.368;2023-06-14T03:14:48;14.73;;;7.22;;
10945;SDS011;5525;42.648;23.368;2023-06-14T03:17:15;7.97;;;7.20;;
10945;SDS011;5525;42.648;23.368;2023-06-14T03:19:44;8.07;;;6.55;;
10945;SDS011;5525;42.648;23.368;2023-06-14T03:22:11;10.35;;;6.80;;
10945;SDS011;5525;42.648;23.368;2023-06-14T03:24:39;12.73;;;7.18;;
10945;SDS011;5525;42.648;23.368;2023-06-14T03:27:06;7.55;;;6.35;;
10945;SDS011;5525;42.648;23.368;2023-06-14T03:29:35;8.70;;;6.65;;
10945;SDS011;5525;42.648;23.368;2023-06-14T03:32:02;8.45;;;6.60;;
10945;SDS011;5525;42.648;23.368;2023-06-14T03:34:29;8.55;;;6.60;;
10945;SDS011;5525;42.648;23.368;2023-06-14T03:36:56;8.95;;;6.93;;
10945;SDS011;5525;42.648;23.368;2023-06-14T03:39:22;9.20;;;7.20;;
10945;SDS011;5525;42.648;23.368;2023-06-14T03:41:50;7.40;;;6.65;;
10945;SDS011;5525;42.648;23.368;2023-06-14T03:44:18;8.45;;;6.82;;
10945;SDS011;5525;42.648;23.368;2023-06-14T03:46:45;8.88;;;6.93;;
10945;SDS011;5525;42.648;23.368;2023-06-14T03:49:11;9.38;;;6.57;;
10945;SDS011;5525;42.648;23.368;2023-06-14T03:51:38;11.15;;;6.82;;
10945;SDS011;5525;42.648;23.368;2023-06-14T03:54:06;8.55;;;6.82;;
10945;SDS011;5525;42.648;23.368;2023-06-14T03:56:32;6.75;;;6.05;;
10945;SDS011;5525;42.648;23.368;2023-06-14T03:59:00;9.45;;;6.75;;
10945;SDS011;5525;42.648;23.368;2023-06-14T04:01:27;10.07;;;6.97;;
10945;SDS011;5525;42.648;23.368;2023-06-14T04:03:55;11.00;;;7.35;;
10945;SDS011;5525;42.648;23.368;2023-06-14T04:06:23;7.97;;;7.03;;
10945;SDS011;5525;42.648;23.368;2023-06-14T04:08:56;8.00;;;6.40;;
10945;SDS011;5525;42.648;23.368;2023-06-14T04:11:29;10.52;;;7.10;;
10945;SDS011;5525;42.648;23.368;2023-06-14T04:13:56;10.60;;;7.22;;
10945;SDS011;5525;42.648;23.368;2023-06-14T04:16:24;7.65;;;6.90;;
10945;SDS011;5525;42.648;23.368;2023-06-14T04:18:50;11.18;;;7.38;;
10945;SDS011;5525;42.648;23.368;2023-06-14T04:21:18;11.10;;;7.53;;
10945;SDS011;5525;42.648;23.368;2023-06-14T04:23:45;9.90;;;7.80;;
10945;SDS011;5525;42.648;23.368;2023-06-14T04:26:12;8.63;;;7.57;;
10945;SDS011;5525;42.648;23.368;2023-06-14T04:28:39;14.73;;;10.70;;
10945;SDS011;5525;42.648;23.368;2023-06-14T04:31:06;16.05;;;8.52;;
10945;SDS011;5525;42.648;23.368;2023-06-14T04:33:35;10.68;;;7.25;;
10945;SDS011;5525;42.648;23.368;2023-06-14T04:36:08;10.63;;;7.93;;
10945;SDS011;5525;42.648;23.368;2023-06-14T04:38:36;9.13;;;7.97;;
10945;SDS011;5525;42.648;23.368;2023-06-14T04:41:03;12.02;;;7.72;;
10945;SDS011;5525;42.648;23.368;2023-06-14T04:43:30;11.98;;;7.60;;
10945;SDS011;5525;42.648;23.368;2023-06-14T04:46:03;8.63;;;7.55;;
10945;SDS011;5525;42.648;23.368;2023-06-14T04:48:30;15.55;;;8.38;;
10945;SDS011;5525;42.648;23.368;2023-06-14T04:50:58;11.32;;;8.15;;
10945;SDS011;5525;42.648;23.368;2023-06-14T04:53:25;14.45;;;8.40;;
10945;SDS011;5525;42.648;23.368;2023-06-14T04:55:54;10.23;;;7.78;;
10945;SDS011;5525;42.648;23.368;2023-06-14T04:58:21;11.15;;;8.27;;
10945;SDS011;5525;42.648;23.368;2023-06-14T05:00:47;9.60;;;7.63;;
10945;SDS011;5525;42.648;23.368;2023-06-14T05:03:14;11.65;;;8.20;;
10945;SDS011;5525;42.648;23.368;2023-06-14T05:05:41;12.48;;;8.88;;
10945;SDS011;5525;42.648;23.368;2023-06-14T05:08:09;10.63;;;9.40;;
10945;SDS011;5525;42.648;23.368;2023-06-14T05:10:35;10.15;;;8.90;;
10945;SDS011;5525;42.648;23.368;2023-06-14T05:13:02;16.90;;;10.70;;
10945;SDS011;5525;42.648;23.368;2023-06-14T05:15:29;15.05;;;9.88;;
10945;SDS011;5525;42.648;23.368;2023-06-14T05:17:55;12.98;;;11.38;;
10945;SDS011;5525;42.648;23.368;2023-06-14T05:20:22;19.35;;;14.02;;
10945;SDS011;5525;42.648;23.368;2023-06-14T05:22:51;29.10;;;19.80;;
10945;SDS011;5525;42.648;23.368;2023-06-14T05:25:20;29.48;;;21.27;;
10945;SDS011;5525;42.648;23.368;2023-06-14T05:27:47;21.42;;;16.10;;
10945;SDS011;5525;42.648;23.368;2023-06-14T05:30:13;21.63;;;13.25;;
10945;SDS011;5525;42.648;23.368;2023-06-14T05:32:40;13.73;;;11.38;;
10945;SDS011;5525;42.648;23.368;2023-06-14T05:35:08;13.52;;;10.88;;
10945;SDS011;5525;42.648;23.368;2023-06-14T05:37:35;15.95;;;10.88;;
10945;SDS011;5525;42.648;23.368;2023-06-14T05:40:02;13.88;;;11.02;;
10945;SDS011;5525;42.648;23.368;2023-06-14T05:42:32;14.18;;;11.25;;
10945;SDS011;5525;42.648;23.368;2023-06-14T05:44:58;12.90;;;10.88;;
10945;SDS011;5525;42.648;23.368;2023-06-14T05:47:25;12.23;;;10.32;;
10945;SDS011;5525;42.648;23.368;2023-06-14T05:49:52;12.77;;;11.18;;
10945;SDS011;5525;42.648;23.368;2023-06-14T05:52:19;13.30;;;10.60;;
10945;SDS011;5525;42.648;23.368;2023-06-14T05:54:46;12.45;;;10.85;;
10945;SDS011;5525;42.648;23.368;2023-06-14T05:57:13;12.20;;;10.32;;
10945;SDS011;5525;42.648;23.368;2023-06-14T05:59:41;12.68;;;11.23;;
10945;SDS011;5525;42.648;23.368;2023-06-14T06:02:08;13.43;;;11.55;;
10945;SDS011;5525;42.648;23.368;2023-06-14T06:04:34;13.82;;;10.65;;
10945;SDS011;5525;42.648;23.368;2023-06-14T06:07:01;13.20;;;11.30;;
10945;SDS011;5525;42.648;23.368;2023-06-14T06:09:28;14.52;;;11.60;;
10945;SDS011;5525;42.648;23.368;2023-06-14T06:11:55;14.73;;;11.52;;
10945;SDS011;5525;42.648;23.368;2023-06-14T06:14:22;15.95;;;10.95;;
10945;SDS011;5525;42.648;23.368;2023-06-14T06:16:50;19.38;;;11.40;;
10945;SDS011;5525;42.648;23.368;2023-06-14T06:19:17;15.63;;;10.80;;
10945;SDS011;5525;42.648;23.368;2023-06-14T06:21:44;14.10;;;11.15;;
10945;SDS011;5525;42.648;23.368;2023-06-14T06:24:11;14.45;;;11.85;;
10945;SDS011;5525;42.648;23.368;2023-06-14T06:26:38;13.25;;;11.32;;
10945;SDS011;5525;42.648;23.368;2023-06-14T06:29:05;14.70;;;10.77;;
10945;SDS011;5525;42.648;23.368;2023-06-14T06:31:31;15.93;;;11.65;;
10945;SDS011;5525;42.648;23.368;2023-06-14T06:33:59;13.68;;;11.32;;
10945;SDS011;5525;42.648;23.368;2023-06-14T06:36:26;16.55;;;10.93;;
10945;SDS011;5525;42.648;23.368;2023-06-14T06:38:53;18.45;;;11.63;;
10945;SDS011;5525;42.648;23.368;2023-06-14T06:41:19;14.82;;;11.43;;
10945;SDS011;5525;42.648;23.368;2023-06-14T06:43:46;14.15;;;11.70;;
10945;SDS011;5525;42.648;23.368;2023-06-14T06:46:13;16.92;;;11.60;;
10945;SDS011;5525;42.648;23.368;2023-06-14T06:48:39;14.90;;;12.23;;
10945;SDS011;5525;42.648;23.368;2023-06-14T06:51:08;15.75;;;13.10;;
10945;SDS011;5525;42.648;23.368;2023-06-14T06:53:38;16.52;;;12.82;;
10945;SDS011;5525;42.648;23.368;2023-06-14T06:56:04;13.48;;;11.63;;
10945;SDS011;5525;42.648;23.368;2023-06-14T06:58:31;14.77;;;11.63;;
10945;SDS011;5525;42.648;23.368;2023-06-14T07:00:58;16.33;;;12.73;;
10945;SDS011;5525;42.648;23.368;2023-06-14T07:03:25;15.68;;;11.88;;
10945;SDS011;5525;42.648;23.368;2023-06-14T07:05:51;17.67;;;11.60;;
10945;SDS011;5525;42.648;23.368;2023-06-14T07:08:19;18.58;;;11.73;;
10945;SDS011;5525;42.648;23.368;2023-06-14T07:10:46;18.08;;;11.95;;
10945;SDS011;5525;42.648;23.368;2023-06-14T07:13:13;16.52;;;11.95;;
10945;SDS011;5525;42.648;23.368;2023-06-14T07:15:40;22.02;;;12.68;;
10945;SDS011;5525;42.648;23.368;2023-06-14T07:18:06;15.93;;;12.50;;
10945;SDS011;5525;42.648;23.368;2023-06-14T07:20:33;14.25;;;11.93;;
10945;SDS011;5525;42.648;23.368;2023-06-14T07:23:03;16.17;;;12.82;;
10945;SDS011;5525;42.648;23.368;2023-06-14T07:25:31;13.40;;;11.57;;
10945;SDS011;5525;42.648;23.368;2023-06-14T07:27:58;15.15;;;10.80;;
10945;SDS011;5525;42.648;23.368;2023-06-14T07:30:25;18.45;;;11.10;;
10945;SDS011;5525;42.648;23.368;2023-06-14T07:32:52;14.13;;;11.48;;
10945;SDS011;5525;42.648;23.368;2023-06-14T07:35:19;13.77;;;11.73;;
10945;SDS011;5525;42.648;23.368;2023-06-14T07:37:46;14.73;;;12.50;;
10945;SDS011;5525;42.648;23.368;2023-06-14T07:40:15;14.07;;;12.60;;
10945;SDS011;5525;42.648;23.368;2023-06-14T07:42:43;14.43;;;12.77;;
10945;SDS011;5525;42.648;23.368;2023-06-14T07:45:11;14.10;;;11.20;;
10945;SDS011;5525;42.648;23.368;2023-06-14T07:47:39;20.02;;;12.35;;
10945;SDS011;5525;42.648;23.368;2023-06-14T07:50:06;13.70;;;11.13;;
10945;SDS011;5525;42.648;23.368;2023-06-14T07:52:33;15.80;;;12.13;;
10945;SDS011;5525;42.648;23.368;2023-06-14T07:55:00;14.20;;;11.93;;
10945;SDS011;5525;42.648;23.368;2023-06-14T07:57:27;19.02;;;11.80;;
10945;SDS011;5525;42.648;23.368;2023-06-14T07:59:55;14.50;;;11.32;;
10945;SDS011;5525;42.648;23.368;2023-06-14T08:02:21;14.15;;;10.13;;
10945;SDS011;5525;42.648;23.368;2023-06-14T08:04:48;12.38;;;10.02;;
10945;SDS011;5525;42.648;23.368;2023-06-14T08:07:15;17.08;;;9.95;;
10945;SDS011;5525;42.648;23.368;2023-06-14T08:09:41;16.98;;;10.27;;
10945;SDS011;5525;42.648;23.368;2023-06-14T08:12:08;14.77;;;11.38;;
10945;SDS011;5525;42.648;23.368;2023-06-14T08:14:35;17.25;;;10.88;;
10945;SDS011;5525;42.648;23.368;2023-06-14T08:17:04;13.27;;;10.20;;
10945;SDS011;5525;42.648;23.368;2023-06-14T08:19:30;18.05;;;10.63;;
10945;SDS011;5525;42.648;23.368;2023-06-14T08:21:57;12.32;;;11.02;;
10945;SDS011;5525;42.648;23.368;2023-06-14T08:24:25;11.63;;;9.88;;
10945;SDS011;5525;42.648;23.368;2023-06-14T08:26:51;11.57;;;10.30;;
10945;SDS011;5525;42.648;23.368;2023-06-14T08:29:18;12.35;;;10.35;;
10945;SDS011;5525;42.648;23.368;2023-06-14T08:31:46;12.52;;;9.48;;
10945;SDS011;5525;42.648;23.368;2023-06-14T08:34:14;13.35;;;10.20;;
10945;SDS011;5525;42.648;23.368;2023-06-14T08:36:41;9.80;;;8.88;;
10945;SDS011;5525;42.648;23.368;2023-06-14T08:39:08;11.43;;;9.60;;
10945;SDS011;5525;42.648;23.368;2023-06-14T08:41:35;10.32;;;9.23;;
10945;SDS011;5525;42.648;23.368;2023-06-14T08:44:02;11.50;;;10.40;;
10945;SDS011;5525;42.648;23.368;2023-06-14T08:46:29;13.50;;;10.48;;
10945;SDS011;5525;42.648;23.368;2023-06-14T08:49:00;11.88;;;10.15;;
10945;SDS011;5525;42.648;23.368;2023-06-14T08:51:29;11.63;;;10.43;;
10945;SDS011;5525;42.648;23.368;2023-06-14T08:53:59;10.85;;;9.75;;
10945;SDS011;5525;42.648;23.368;2023-06-14T08:56:27;11.55;;;8.85;;
10945;SDS011;5525;42.648;23.368;2023-06-14T08:58:54;9.70;;;8.77;;
10945;SDS011;5525;42.648;23.368;2023-06-14T09:01:22;11.18;;;9.05;;
10945;SDS011;5525;42.648;23.368;2023-06-14T09:03:49;10.55;;;8.00;;
10945;SDS011;5525;42.648;23.368;2023-06-14T09:06:17;10.30;;;8.43;;
10945;SDS011;5525;42.648;23.368;2023-06-14T09:08:46;9.25;;;8.15;;
10945;SDS011;5525;42.648;23.368;2023-06-14T09:11:13;13.10;;;9.45;;
10945;SDS011;5525;42.648;23.368;2023-06-14T09:13:43;12.15;;;9.52;;
10945;SDS011;5525;42.648;23.368;2023-06-14T09:16:11;15.38;;;9.10;;
10945;SDS011;5525;42.648;23.368;2023-06-14T09:18:39;10.95;;;9.95;;
10945;SDS011;5525;42.648;23.368;2023-06-14T09:21:09;11.02;;;9.82;;
10945;SDS011;5525;42.648;23.368;2023-06-14T09:23:36;13.13;;;9.77;;
10945;SDS011;5525;42.648;23.368;2023-06-14T09:26:08;11.93;;;10.65;;
10945;SDS011;5525;42.648;23.368;2023-06-14T09:28:36;12.18;;;10.70;;
10945;SDS011;5525;42.648;23.368;2023-06-14T09:31:07;12.48;;;10.85;;
10945;SDS011;5525;42.648;23.368;2023-06-14T09:33:35;17.00;;;11.05;;
10945;SDS011;5525;42.648;23.368;2023-06-14T09:36:02;13.57;;;10.10;;
10945;SDS011;5525;42.648;23.368;2023-06-14T09:38:29;15.00;;;9.95;;
10945;SDS011;5525;42.648;23.368;2023-06-14T09:40:56;11.68;;;10.27;;
10945;SDS011;5525;42.648;23.368;2023-06-14T09:43:25;11.90;;;10.60;;
10945;SDS011;5525;42.648;23.368;2023-06-14T09:45:53;11.75;;;9.95;;
10945;SDS011;5525;42.648;23.368;2023-06-14T09:48:20;11.85;;;10.75;;
10945;SDS011;5525;42.648;23.368;2023-06-14T09:50:47;14.75;;;10.95;;
10945;SDS011;5525;42.648;23.368;2023-06-14T09:53:16;12.85;;;10.07;;
10945;SDS011;5525;42.648;23.368;2023-06-14T09:55:47;12.35;;;11.02;;
10945;SDS011;5525;42.648;23.368;2023-06-14T09:58:16;11.88;;;10.15;;
10945;SDS011;5525;42.648;23.368;2023-06-14T10:00:47;12.57;;;9.88;;
10945;SDS011;5525;42.648;23.368;2023-06-14T10:03:20;11.73;;;9.70;;
10945;SDS011;5525;42.648;23.368;2023-06-14T10:05:50;10.48;;;9.45;;
10945;SDS011;5525;42.648;23.368;2023-06-14T10:08:18;11.27;;;9.80;;
10945;SDS011;5525;42.648;23.368;2023-06-14T10:10:46;10.65;;;9.35;;
10945;SDS011;5525;42.648;23.368;2023-06-14T10:13:13;10.15;;;8.98;;
10945;SDS011;5525;42.648;23.368;2023-06-14T10:15:42;12.57;;;9.23;;
10945;SDS011;5525;42.648;23.368;2023-06-14T10:18:22;10.43;;;8.90;;
10945;SDS011;5525;42.648;23.368;2023-06-14T10:20:59;10.15;;;9.15;;
10945;SDS011;5525;42.648;23.368;2023-06-14T10:23:35;10.05;;;9.07;;
10945;SDS011;5525;42.648;23.368;2023-06-14T10:26:06;9.80;;;8.80;;
10945;SDS011;5525;42.648;23.368;2023-06-14T10:28:33;9.73;;;8.73;;
10945;SDS011;5525;42.648;23.368;2023-06-14T10:31:06;8.70;;;7.82;;
10945;SDS011;5525;42.648;23.368;2023-06-14T10:33:34;10.45;;;9.10;;
10945;SDS011;5525;42.648;23.368;2023-06-14T10:36:23;8.57;;;7.78;;
10945;SDS011;5525;42.648;23.368;2023-06-14T10:38:59;10.65;;;8.20;;
10945;SDS011;5525;42.648;23.368;2023-06-14T10:41:30;10.32;;;8.15;;
10945;SDS011;5525;42.648;23.368;2023-06-14T10:47:27;9.07;;;8.18;;
10945;SDS011;5525;42.648;23.368;2023-06-14T10:49:55;9.27;;;8.07;;
10945;SDS011;5525;42.648;23.368;2023-06-14T10:52:24;12.18;;;9.25;;
10945;SDS011;5525;42.648;23.368;2023-06-14T10:54:59;9.82;;;8.70;;
10945;SDS011;5525;42.648;23.368;2023-06-14T10:57:31;8.80;;;8.02;;
10945;SDS011;5525;42.648;23.368;2023-06-14T10:59:59;10.05;;;9.05;;
10945;SDS011;5525;42.648;23.368;2023-06-14T11:02:48;8.65;;;7.45;;
10945;SDS011;5525;42.648;23.368;2023-06-14T11:05:23;8.75;;;7.78;;
10945;SDS011;5525;42.648;23.368;2023-06-14T11:07:55;7.93;;;7.13;;
10945;SDS011;5525;42.648;23.368;2023-06-14T11:10:37;8.57;;;7.70;;
10945;SDS011;5525;42.648;23.368;2023-06-14T11:13:04;7.97;;;7.32;;
10945;SDS011;5525;42.648;23.368;2023-06-14T11:15:32;8.52;;;7.70;;
10945;SDS011;5525;42.648;23.368;2023-06-14T11:18:01;8.82;;;7.20;;
10945;SDS011;5525;42.648;23.368;2023-06-14T11:20:29;8.80;;;7.40;;
10945;SDS011;5525;42.648;23.368;2023-06-14T11:22:57;12.52;;;7.43;;
10945;SDS011;5525;42.648;23.368;2023-06-14T11:25:24;8.13;;;7.43;;
10945;SDS011;5525;42.648;23.368;2023-06-14T11:27:51;8.05;;;7.35;;
10945;SDS011;5525;42.648;23.368;2023-06-14T11:30:18;7.30;;;6.60;;
10945;SDS011;5525;42.648;23.368;2023-06-14T11:32:46;7.78;;;7.07;;
10945;SDS011;5525;42.648;23.368;2023-06-14T11:35:15;7.07;;;6.47;;
10945;SDS011;5525;42.648;23.368;2023-06-14T11:37:42;7.75;;;7.05;;
10945;SDS011;5525;42.648;23.368;2023-06-14T11:40:09;7.45;;;6.75;;
10945;SDS011;5525;42.648;23.368;2023-06-14T11:42:38;9.35;;;6.47;;
10945;SDS011;5525;42.648;23.368;2023-06-14T11:45:07;6.95;;;6.22;;
10945;SDS011;5525;42.648;23.368;2023-06-14T11:47:35;6.82;;;6.18;;
10945;SDS011;5525;42.648;23.368;2023-06-14T11:50:02;6.57;;;6.05;;
10945;SDS011;5525;42.648;23.368;2023-06-14T11:52:31;6.63;;;6.03;;
10945;SDS011;5525;42.648;23.368;2023-06-14T11:54:58;6.25;;;5.75;;
10945;SDS011;5525;42.648;23.368;2023-06-14T11:57:25;6.75;;;6.15;;
10945;SDS011;5525;42.648;23.368;2023-06-14T11:59:52;6.80;;;6.30;;
10945;SDS011;5525;42.648;23.368;2023-06-14T12:02:21;6.22;;;5.63;;
10945;SDS011;5525;42.648;23.368;2023-06-14T12:04:50;6.60;;;5.85;;
10945;SDS011;5525;42.648;23.368;2023-06-14T12:07:17;6.55;;;5.95;;
10945;SDS011;5525;42.648;23.368;2023-06-14T12:12:36;6.70;;;5.97;;
10945;SDS011;5525;42.648;23.368;2023-06-14T12:15:04;6.82;;;6.22;;
10945;SDS011;5525;42.648;23.368;2023-06-14T12:17:32;6.18;;;5.57;;
10945;SDS011;5525;42.648;23.368;2023-06-14T12:20:04;6.20;;;5.53;;
10945;SDS011;5525;42.648;23.368;2023-06-14T12:22:33;6.97;;;6.35;;
10945;SDS011;5525;42.648;23.368;2023-06-14T12:25:00;7.00;;;6.30;;
10945;SDS011;5525;42.648;23.368;2023-06-14T12:27:29;7.55;;;5.60;;
10945;SDS011;5525;42.648;23.368;2023-06-14T12:30:00;7.03;;;5.60;;
10945;SDS011;5525;42.648;23.368;2023-06-14T12:32:27;6.78;;;6.15;;
10945;SDS011;5525;42.648;23.368;2023-06-14T12:34:54;6.50;;;5.70;;
10945;SDS011;5525;42.648;23.368;2023-06-14T12:37:21;6.78;;;6.13;;
10945;SDS011;5525;42.648;23.368;2023-06-14T12:39:47;7.00;;;6.15;;
10945;SDS011;5525;42.648;23.368;2023-06-14T12:42:15;6.47;;;5.88;;
10945;SDS011;5525;42.648;23.368;2023-06-14T12:44:44;9.13;;;6.00;;
10945;SDS011;5525;42.648;23.368;2023-06-14T12:47:10;6.15;;;5.65;;
10945;SDS011;5525;42.648;23.368;2023-06-14T12:49:38;8.88;;;7.97;;
10945;SDS011;5525;42.648;23.368;2023-06-14T12:52:06;7.47;;;6.22;;
10945;SDS011;5525;42.648;23.368;2023-06-14T12:54:34;6.78;;;5.60;;
10945;SDS011;5525;42.648;23.368;2023-06-14T12:57:00;5.90;;;5.40;;
10945;SDS011;5525;42.648;23.368;2023-06-14T12:59:28;8.18;;;5.72;;
10945;SDS011;5525;42.648;23.368;2023-06-14T13:01:59;6.22;;;5.20;;
10945;SDS011;5525;42.648;23.368;2023-06-14T13:04:36;6.30;;;5.70;;
10945;SDS011;5525;42.648;23.368;2023-06-14T13:07:02;7.53;;;6.50;;
10945;SDS011;5525;42.648;23.368;2023-06-14T13:09:29;8.13;;;6.53;;
10945;SDS011;5525;42.648;23.368;2023-06-14T13:11:56;12.15;;;6.80;;
10945;SDS011;5525;42.648;23.368;2023-06-14T13:14:23;7.88;;;6.45;;
10945;SDS011;5525;42.648;23.368;2023-06-14T13:16:50;7.35;;;6.65;;
10945;SDS011;5525;42.648;23.368;2023-06-14T13:19:18;7.97;;;7.05;;
10945;SDS011;5525;42.648;23.368;2023-06-14T13:21:44;8.73;;;6.68;;
10945;SDS011;5525;42.648;23.368;2023-06-14T13:24:11;8.10;;;7.05;;
10945;SDS011;5525;42.648;23.368;2023-06-14T13:26:38;14.15;;;8.30;;
10945;SDS011;5525;42.648;23.368;2023-06-14T13:29:04;11.50;;;8.00;;
10945;SDS011;5525;42.648;23.368;2023-06-14T13:31:31;12.57;;;8.82;;
10945;SDS011;5525;42.648;23.368;2023-06-14T13:33:58;9.02;;;8.07;;
10945;SDS011;5525;42.648;23.368;2023-06-14T13:36:26;11.13;;;8.68;;
10945;SDS011;5525;42.648;23.368;2023-06-14T13:38:53;13.00;;;9.63;;
10945;SDS011;5525;42.648;23.368;2023-06-14T13:41:20;11.15;;;9.60;;
10945;SDS011;5525;42.648;23.368;2023-06-14T13:43:46;13.82;;;10.48;;
10945;SDS011;5525;42.648;23.368;2023-06-14T13:46:13;15.18;;;10.95;;
10945;SDS011;5525;42.648;23.368;2023-06-14T13:48:40;14.77;;;11.32;;
10945;SDS011;5525;42.648;23.368;2023-06-14T13:51:06;12.68;;;10.25;;
10945;SDS011;5525;42.648;23.368;2023-06-14T13:53:34;10.63;;;9.13;;
10945;SDS011;5525;42.648;23.368;2023-06-14T13:56:01;11.55;;;9.10;;
10945;SDS011;5525;42.648;23.368;2023-06-14T13:58:28;9.93;;;8.93;;
10945;SDS011;5525;42.648;23.368;2023-06-14T14:00:54;10.63;;;8.73;;
10945;SDS011;5525;42.648;23.368;2023-06-14T14:03:21;12.30;;;8.63;;
10945;SDS011;5525;42.648;23.368;2023-06-14T14:05:49;9.23;;;8.23;;
10945;SDS011;5525;42.648;23.368;2023-06-14T14:08:16;9.25;;;7.50;;
10945;SDS011;5525;42.648;23.368;2023-06-14T14:10:44;8.95;;;7.78;;
10945;SDS011;5525;42.648;23.368;2023-06-14T14:13:10;9.90;;;8.05;;
10945;SDS011;5525;42.648;23.368;2023-06-14T14:15:38;8.23;;;7.43;;
10945;SDS011;5525;42.648;23.368;2023-06-14T14:18:04;9.40;;;6.90;;
10945;SDS011;5525;42.648;23.368;2023-06-14T14:20:31;8.82;;;7.45;;
10945;SDS011;5525;42.648;23.368;2023-06-14T14:22:58;8.23;;;6.78;;
10945;SDS011;5525;42.648;23.368;2023-06-14T14:25:24;7.85;;;6.78;;
10945;SDS011;5525;42.648;23.368;2023-06-14T14:27:52;7.50;;;6.80;;
10945;SDS011;5525;42.648;23.368;2023-06-14T14:30:19;8.25;;;6.93;;
10945;SDS011;5525;42.648;23.368;2023-06-14T14:32:48;8.55;;;7.07;;
10945;SDS011;5525;42.648;23.368;2023-06-14T14:35:16;9.85;;;7.93;;
10945;SDS011;5525;42.648;23.368;2023-06-14T14:37:43;8.65;;;7.60;;
10945;SDS011;5525;42.648;23.368;2023-06-14T14:40:10;9.27;;;8.35;;
10945;SDS011;5525;42.648;23.368;2023-06-14T14:42:37;10.18;;;8.90;;
10945;SDS011;5525;42.648;23.368;2023-06-14T14:45:06;9.55;;;8.55;;
10945;SDS011;5525;42.648;23.368;2023-06-14T14:47:33;10.18;;;8.50;;